Weather at Kaçanik Agricultural Airport [CLOSED]

Public forecast

Using degrees Celsius for public forecast. Weather courtesy of forecast.io.

Closest aviation weather report (METAR) to Kaçanik Agricultural Airport

Closest report is Priština Adem Jashari International Airport, 15.3 nm (28.3 km) NNW.

2024/05/20 22:30 (retrieved 27 minutes ago)

BKPR 202230Z 16003KT CAVOK 18/16 Q1014 NOSIG

Closest aviation forecast (TAF) to Kaçanik Agricultural Airport

Closest forecast is Priština Adem Jashari International Airport, 15.3 nm (28.3 km) NNW.

2024/05/20 18:00 (retrieved 5 hours ago)

TAF BKPR 201730Z 2018/2118 VRB05KT 9999 SCT050 TEMPO 2103/2106 3000 BR BECMG 2106/2108 14012KT TEMPO 2112/2117 4000 TSRA SCT030CB